createdAt,value
2023-03-20T00:02:18.295Z,33.20
2023-03-20T00:04:45.863Z,35.53
2023-03-20T00:07:13.111Z,35.67
2023-03-20T00:09:40.350Z,35.75
2023-03-20T00:12:07.602Z,33.85
2023-03-20T00:14:35.076Z,32.03
2023-03-20T00:17:02.216Z,31.45
2023-03-20T00:19:31.182Z,30.95
2023-03-20T00:21:58.776Z,30.70
2023-03-20T00:24:26.316Z,31.02
2023-03-20T00:26:54.115Z,29.90
2023-03-20T00:29:28.824Z,28.80
2023-03-20T00:31:57.016Z,28.90
2023-03-20T00:34:27.378Z,29.75
2023-03-20T00:36:54.876Z,29.60
2023-03-20T00:39:22.311Z,28.30
2023-03-20T00:41:49.379Z,28.30
2023-03-20T00:44:36.682Z,28.38
2023-03-20T00:47:25.613Z,28.27
2023-03-20T00:49:56.034Z,28.13
2023-03-20T00:52:24.398Z,27.75
2023-03-20T00:54:51.992Z,29.65
2023-03-20T00:57:29.419Z,29.90
2023-03-20T01:00:20.243Z,29.52
2023-03-20T01:02:48.061Z,29.85
2023-03-20T01:05:15.239Z,29.38
2023-03-20T01:07:42.340Z,28.27
2023-03-20T01:10:11.756Z,27.92
2023-03-20T01:12:43.256Z,28.40
2023-03-20T01:15:32.261Z,28.35
2023-03-20T01:17:59.445Z,27.95
2023-03-20T01:20:29.487Z,27.85
2023-03-20T01:22:57.108Z,27.85
2023-03-20T01:25:24.523Z,27.38
2023-03-20T01:27:54.242Z,27.35
2023-03-20T01:30:24.726Z,28.63
2023-03-20T01:32:52.412Z,28.05
2023-03-20T01:35:27.479Z,28.77
2023-03-20T01:37:56.451Z,28.90
2023-03-20T01:40:33.797Z,29.45
2023-03-20T01:43:03.473Z,29.17
2023-03-20T01:45:36.152Z,29.70
2023-03-20T01:48:18.419Z,29.08
2023-03-20T01:50:46.488Z,30.45
2023-03-20T01:53:17.305Z,31.08
2023-03-20T01:56:00.831Z,29.52
2023-03-20T01:58:41.400Z,28.58
2023-03-20T02:01:12.128Z,30.00
2023-03-20T02:03:42.948Z,30.77
2023-03-20T02:06:19.540Z,30.48
2023-03-20T02:09:09.063Z,31.23
2023-03-20T02:11:43.074Z,30.85
2023-03-20T02:14:10.729Z,32.00
2023-03-20T02:16:49.988Z,32.05
2023-03-20T02:20:07.460Z,31.55
2023-03-20T02:22:40.584Z,33.58
2023-03-20T02:25:26.230Z,34.90
2023-03-20T02:28:27.549Z,35.17
2023-03-20T02:31:19.477Z,33.88
2023-03-20T02:34:09.172Z,34.92
2023-03-20T02:37:13.799Z,33.05
2023-03-20T02:39:46.738Z,33.30
2023-03-20T02:42:43.865Z,32.80
2023-03-20T02:45:22.928Z,32.10
2023-03-20T02:48:16.239Z,32.30
2023-03-20T02:50:55.492Z,33.80
2023-03-20T02:53:56.601Z,33.83
2023-03-20T02:56:37.657Z,34.38
2023-03-20T02:59:26.818Z,33.00
2023-03-20T03:02:05.369Z,33.55
2023-03-20T03:04:38.338Z,34.50
2023-03-20T03:07:07.943Z,34.15
2023-03-20T03:09:41.444Z,35.00
2023-03-20T03:12:12.432Z,33.95
2023-03-20T03:15:29.500Z,34.28
2023-03-20T03:17:59.765Z,34.63
2023-03-20T03:20:37.328Z,32.67
2023-03-20T03:23:05.951Z,32.85
2023-03-20T03:25:40.864Z,32.42
2023-03-20T03:28:25.090Z,33.60
2023-03-20T03:30:54.323Z,33.83
2023-03-20T03:33:28.508Z,33.22
2023-03-20T03:36:04.821Z,31.60
2023-03-20T03:39:10.622Z,31.27
2023-03-20T03:41:49.714Z,29.60
2023-03-20T03:44:28.840Z,28.73
2023-03-20T03:47:12.673Z,30.33
2023-03-20T03:49:48.729Z,29.55
2023-03-20T03:52:22.710Z,29.88
2023-03-20T03:54:54.326Z,30.15
2023-03-20T03:57:41.781Z,29.10
2023-03-20T04:00:16.486Z,31.73
2023-03-20T04:02:47.479Z,32.40
2023-03-20T04:05:17.017Z,32.42
2023-03-20T04:07:48.688Z,31.97
2023-03-20T04:10:17.660Z,31.67
2023-03-20T04:12:45.971Z,30.00
2023-03-20T04:15:16.152Z,29.23
2023-03-20T04:17:44.579Z,27.77
2023-03-20T04:20:13.850Z,26.27
2023-03-20T04:22:41.288Z,25.88
2023-03-20T04:25:24.497Z,25.23
2023-03-20T04:27:54.438Z,24.00
2023-03-20T04:30:34.035Z,23.57
2023-03-20T04:33:17.722Z,23.20
2023-03-20T04:36:04.012Z,22.75
2023-03-20T04:38:31.426Z,21.67
2023-03-20T04:40:59.747Z,21.40
2023-03-20T04:43:27.075Z,22.02
2023-03-20T04:45:54.393Z,22.42
2023-03-20T04:48:21.625Z,22.38
2023-03-20T04:50:51.060Z,23.38
2023-03-20T04:53:22.513Z,23.67
2023-03-20T04:55:51.651Z,22.48
2023-03-20T04:58:18.948Z,21.75
2023-03-20T05:00:47.223Z,20.38
2023-03-20T05:03:14.425Z,22.10
2023-03-20T05:05:41.633Z,20.83
2023-03-20T05:08:08.845Z,21.80
2023-03-20T05:10:38.299Z,22.05
2023-03-20T05:13:25.420Z,23.63
2023-03-20T05:16:01.381Z,23.63
2023-03-20T05:18:39.118Z,23.48
2023-03-20T05:21:26.494Z,23.55
2023-03-20T05:24:12.231Z,24.35
2023-03-20T05:26:55.706Z,25.27
2023-03-20T05:29:25.553Z,25.42
2023-03-20T05:32:14.117Z,26.02
2023-03-20T05:35:21.930Z,26.50
2023-03-20T05:37:57.536Z,26.55
2023-03-20T05:40:50.741Z,27.55
2023-03-20T05:43:29.254Z,28.65
2023-03-20T05:46:17.716Z,30.45
2023-03-20T05:48:57.523Z,30.55
2023-03-20T05:51:50.483Z,30.27
2023-03-20T05:54:27.913Z,30.33
2023-03-20T05:57:04.537Z,31.27
2023-03-20T05:59:46.416Z,30.52
2023-03-20T06:02:32.618Z,30.52
2023-03-20T06:05:08.989Z,30.63
2023-03-20T06:07:44.823Z,30.52
2023-03-20T06:10:15.237Z,31.98
2023-03-20T06:12:43.176Z,32.22
2023-03-20T06:15:11.054Z,32.13
2023-03-20T06:17:42.011Z,33.40
2023-03-20T06:20:10.089Z,33.70
2023-03-20T06:22:37.584Z,34.15
2023-03-20T06:25:06.113Z,35.72
2023-03-20T06:27:38.639Z,35.35
2023-03-20T06:30:06.832Z,33.28
2023-03-20T06:32:36.565Z,35.25
2023-03-20T06:35:09.336Z,35.95
2023-03-20T06:37:37.134Z,37.85
2023-03-20T06:40:10.536Z,38.97
2023-03-20T06:42:38.430Z,39.28
2023-03-20T06:45:08.247Z,36.55
2023-03-20T06:48:11.423Z,38.28
2023-03-20T06:50:39.173Z,44.47
2023-03-20T06:53:06.777Z,43.78
2023-03-20T06:55:40.529Z,43.17
2023-03-20T06:58:07.689Z,44.70
2023-03-20T07:00:36.378Z,44.92
2023-03-20T07:03:05.932Z,45.42
2023-03-20T07:05:34.055Z,41.53
2023-03-20T07:08:05.244Z,43.05
2023-03-20T07:10:32.964Z,44.42
2023-03-20T07:13:01.386Z,44.80
2023-03-20T07:15:30.214Z,44.70
2023-03-20T07:18:00.024Z,45.15
2023-03-20T07:20:28.272Z,43.47
2023-03-20T07:22:55.770Z,40.65
2023-03-20T07:25:35.693Z,35.70
2023-03-20T07:28:09.526Z,33.72
2023-03-20T07:30:39.699Z,32.15
2023-03-20T07:33:07.184Z,30.52
2023-03-20T07:35:35.940Z,29.30
2023-03-20T07:38:03.285Z,27.80
2023-03-20T07:40:32.164Z,26.85
2023-03-20T07:43:04.028Z,26.10
2023-03-20T07:45:49.279Z,24.60
2023-03-20T07:48:19.741Z,26.17
2023-03-20T07:50:46.943Z,26.08
2023-03-20T07:53:14.012Z,25.65
2023-03-20T07:55:41.208Z,26.23
2023-03-20T07:58:10.703Z,24.52
2023-03-20T08:00:38.204Z,45.90
2023-03-20T08:03:06.110Z,63.53
2023-03-20T08:05:34.175Z,27.58
2023-03-20T08:08:01.704Z,63.50
2023-03-20T08:10:29.407Z,65.40
2023-03-20T08:12:56.408Z,23.00
2023-03-20T08:15:23.548Z,24.13
2023-03-20T08:17:50.884Z,22.38
2023-03-20T08:20:18.103Z,20.90
2023-03-20T08:22:45.707Z,25.20
2023-03-20T08:25:13.151Z,20.75
2023-03-20T08:27:40.214Z,20.48
2023-03-20T08:30:09.038Z,22.42
2023-03-20T08:32:36.641Z,21.52
2023-03-20T08:35:04.144Z,22.58
2023-03-20T08:37:31.541Z,19.95
2023-03-20T08:39:58.515Z,19.52
2023-03-20T08:42:25.597Z,21.52
2023-03-20T08:44:52.619Z,19.75
2023-03-20T08:47:19.775Z,19.80
2023-03-20T08:49:47.244Z,20.00
2023-03-20T08:52:14.382Z,20.60
2023-03-20T08:54:41.471Z,20.73
2023-03-20T08:57:08.633Z,20.73
2023-03-20T08:59:35.681Z,20.73
2023-03-20T09:02:02.846Z,20.30
2023-03-20T09:04:29.996Z,24.73
2023-03-20T09:06:57.112Z,24.15
2023-03-20T09:09:29.665Z,32.88
2023-03-20T09:12:00.730Z,22.05
2023-03-20T09:14:29.384Z,20.38
2023-03-20T09:16:56.568Z,42.10
2023-03-20T09:19:23.788Z,21.02
2023-03-20T09:21:51.001Z,22.73
2023-03-20T09:24:18.287Z,20.63
2023-03-20T09:26:45.709Z,23.08
2023-03-20T09:29:13.107Z,21.15
2023-03-20T09:31:40.254Z,21.33
2023-03-20T09:34:07.728Z,21.63
2023-03-20T09:36:35.467Z,23.77
2023-03-20T09:39:02.925Z,19.92
2023-03-20T09:41:45.801Z,20.58
2023-03-20T09:44:51.093Z,69.63
2023-03-20T09:47:35.388Z,28.67
2023-03-20T09:50:39.971Z,22.33
2023-03-20T09:53:29.955Z,23.83
2023-03-20T09:55:57.909Z,21.02
2023-03-20T09:58:34.838Z,20.33
2023-03-20T10:01:06.709Z,20.20
2023-03-20T10:03:50.332Z,19.30
2023-03-20T10:06:18.056Z,20.35
2023-03-20T10:08:46.514Z,19.70
2023-03-20T10:11:23.689Z,20.23
2023-03-20T10:13:56.728Z,19.50
2023-03-20T10:16:49.908Z,20.70
2023-03-20T10:19:27.968Z,18.15
2023-03-20T10:22:02.703Z,19.13
2023-03-20T10:24:33.986Z,18.10
2023-03-20T10:27:18.136Z,18.60
2023-03-20T10:29:55.244Z,19.85
2023-03-20T10:32:36.332Z,19.77
2023-03-20T10:35:31.201Z,19.88
2023-03-20T10:38:16.608Z,20.23
2023-03-20T10:40:44.504Z,20.38
2023-03-20T10:43:17.249Z,19.00
2023-03-20T10:45:45.852Z,19.13
2023-03-20T10:48:30.751Z,19.45
2023-03-20T10:51:00.799Z,19.52
2023-03-20T10:53:51.069Z,19.33
2023-03-20T10:56:42.816Z,21.00
2023-03-20T10:59:43.861Z,20.40
2023-03-20T11:02:16.319Z,20.67
2023-03-20T11:04:43.613Z,20.70
2023-03-20T11:07:25.810Z,20.23
2023-03-20T11:10:05.078Z,20.00
2023-03-20T11:12:42.087Z,19.95
2023-03-20T11:15:30.990Z,20.50
2023-03-20T11:18:06.621Z,19.80
2023-03-20T11:20:44.285Z,20.30
2023-03-20T11:23:16.976Z,19.55
2023-03-20T11:25:56.795Z,20.30
2023-03-20T11:28:50.336Z,21.45
2023-03-20T11:31:21.068Z,22.00
2023-03-20T11:33:51.406Z,21.50
2023-03-20T11:36:28.171Z,21.10
2023-03-20T11:39:22.152Z,22.67
2023-03-20T11:41:59.746Z,21.70
2023-03-20T11:44:29.861Z,20.90
2023-03-20T11:46:59.809Z,20.38
2023-03-20T11:49:30.285Z,20.40
2023-03-20T11:52:11.586Z,21.65
2023-03-20T11:54:47.007Z,20.52
2023-03-20T11:57:32.724Z,22.00
2023-03-20T12:00:28.785Z,22.50
2023-03-20T12:02:56.134Z,21.95
2023-03-20T12:05:35.545Z,20.58
2023-03-20T12:08:17.080Z,20.58
2023-03-20T12:10:49.294Z,20.00
2023-03-20T12:13:24.866Z,17.98
2023-03-20T12:15:59.412Z,17.67
2023-03-20T12:18:51.904Z,15.98
2023-03-20T12:21:35.129Z,15.55
2023-03-20T12:24:47.514Z,15.90
2023-03-20T12:27:38.429Z,16.67
2023-03-20T12:30:21.720Z,16.02
2023-03-20T12:32:56.400Z,15.77
2023-03-20T12:35:28.816Z,16.73
2023-03-20T12:37:56.163Z,16.70
2023-03-20T12:40:39.535Z,16.15
2023-03-20T12:43:16.398Z,16.48
2023-03-20T12:46:11.575Z,17.50
2023-03-20T12:48:47.756Z,15.30
2023-03-20T12:51:48.795Z,15.65
2023-03-20T12:54:42.762Z,16.25
2023-03-20T12:57:31.593Z,16.33
2023-03-20T13:00:10.932Z,15.38
2023-03-20T13:02:46.711Z,14.80
2023-03-20T13:05:24.536Z,12.63
2023-03-20T13:08:27.814Z,13.40
2023-03-20T13:11:00.781Z,14.45
2023-03-20T13:13:46.784Z,14.20
2023-03-20T13:16:43.600Z,14.98
2023-03-20T13:19:17.045Z,13.98
2023-03-20T13:21:49.282Z,15.35
2023-03-20T13:24:39.064Z,15.45
2023-03-20T13:27:11.958Z,16.75
2023-03-20T13:30:00.343Z,17.67
2023-03-20T13:33:02.699Z,20.58
2023-03-20T13:36:11.451Z,17.45
2023-03-20T13:38:50.076Z,18.02
2023-03-20T13:41:18.023Z,19.92
2023-03-20T13:43:57.197Z,19.75
2023-03-20T13:46:45.921Z,20.27
2023-03-20T13:49:37.571Z,20.05
2023-03-20T13:52:15.405Z,19.00
2023-03-20T13:55:11.746Z,17.52
2023-03-20T13:57:57.358Z,15.07
2023-03-20T14:00:49.048Z,14.77
2023-03-20T14:03:33.682Z,15.07
2023-03-20T14:06:01.017Z,14.13
2023-03-20T14:08:28.033Z,13.38
2023-03-20T14:11:06.244Z,14.32
2023-03-20T14:13:35.238Z,13.38
2023-03-20T14:16:08.045Z,13.93
2023-03-20T14:18:36.521Z,13.50
2023-03-20T14:21:13.007Z,13.98
2023-03-20T14:23:44.606Z,13.98
2023-03-20T14:26:19.728Z,15.38
2023-03-20T14:28:58.923Z,13.90
2023-03-20T14:31:26.597Z,13.57
2023-03-20T14:34:00.610Z,13.10
2023-03-20T14:36:40.931Z,14.02
2023-03-20T14:39:21.067Z,14.18
2023-03-20T14:42:03.468Z,15.75
2023-03-20T14:45:03.117Z,18.17
2023-03-20T14:47:44.577Z,18.88
2023-03-20T14:50:43.875Z,19.05
2023-03-20T14:53:26.113Z,18.42
2023-03-20T14:56:13.089Z,20.20
2023-03-20T14:58:47.882Z,21.88
2023-03-20T15:01:23.598Z,22.17
2023-03-20T15:03:59.489Z,21.80
2023-03-20T15:06:28.535Z,22.38
2023-03-20T15:08:58.241Z,22.85
2023-03-20T15:11:26.661Z,22.70
2023-03-20T15:13:55.916Z,22.02
2023-03-20T15:16:32.190Z,22.67
2023-03-20T15:18:59.886Z,22.10
2023-03-20T15:21:41.408Z,21.50
2023-03-20T15:24:16.820Z,21.52
2023-03-20T15:26:43.924Z,20.90
2023-03-20T15:29:16.804Z,21.10
2023-03-20T15:31:44.564Z,20.52
2023-03-20T15:34:27.515Z,20.30
2023-03-20T15:37:00.501Z,21.80
2023-03-20T15:39:29.623Z,22.40
2023-03-20T15:41:58.586Z,23.23
2023-03-20T15:44:28.573Z,23.55
2023-03-20T15:47:14.068Z,23.63
2023-03-20T15:49:43.308Z,23.88
2023-03-20T15:52:13.231Z,25.80
2023-03-20T15:54:43.359Z,26.00
2023-03-20T15:57:19.712Z,26.75
2023-03-20T15:59:47.112Z,29.55
2023-03-20T16:02:14.891Z,27.98
2023-03-20T16:04:47.839Z,29.50
2023-03-20T16:07:26.529Z,28.38
2023-03-20T16:09:54.450Z,28.02
2023-03-20T16:12:21.724Z,29.05
2023-03-20T16:14:51.413Z,28.15
2023-03-20T16:17:20.365Z,28.70
2023-03-20T16:19:47.846Z,28.02
2023-03-20T16:22:26.238Z,28.08
2023-03-20T16:24:58.202Z,27.27
2023-03-20T16:27:36.508Z,27.42
2023-03-20T16:30:16.858Z,26.58
2023-03-20T16:32:51.319Z,26.33
2023-03-20T16:35:21.956Z,26.38
2023-03-20T16:37:54.256Z,26.52
2023-03-20T16:40:22.614Z,26.02
2023-03-20T16:42:54.995Z,25.35
2023-03-20T16:45:29.720Z,26.77
2023-03-20T16:48:12.458Z,25.08
2023-03-20T16:50:44.423Z,27.20
2023-03-20T16:53:16.777Z,26.13
2023-03-20T16:55:49.968Z,26.02
2023-03-20T16:58:22.139Z,28.02
2023-03-20T17:01:05.824Z,28.20
2023-03-20T17:03:40.109Z,28.40
2023-03-20T17:06:19.913Z,28.02
2023-03-20T17:08:51.382Z,28.48
2023-03-20T17:11:35.878Z,27.17
2023-03-20T17:14:04.541Z,28.40
2023-03-20T17:16:35.377Z,29.50
2023-03-20T17:19:15.358Z,32.97
2023-03-20T17:21:43.816Z,34.78
2023-03-20T17:24:14.254Z,33.42
2023-03-20T17:26:44.481Z,34.70
2023-03-20T17:29:13.273Z,34.47
2023-03-20T17:31:40.841Z,34.78
2023-03-20T17:34:13.348Z,35.00
2023-03-20T17:36:41.064Z,34.20
2023-03-20T17:39:14.434Z,34.80
2023-03-20T17:41:41.457Z,32.90
2023-03-20T17:44:09.691Z,34.88
2023-03-20T17:46:49.985Z,35.88
2023-03-20T17:49:27.262Z,38.40
2023-03-20T17:51:55.513Z,39.22
2023-03-20T17:54:22.714Z,39.50
2023-03-20T17:56:49.983Z,38.20
2023-03-20T17:59:17.224Z,39.90
2023-03-20T18:01:45.098Z,41.83
2023-03-20T18:04:12.324Z,40.75
2023-03-20T18:06:39.436Z,39.45
2023-03-20T18:09:06.674Z,37.75
2023-03-20T18:11:33.767Z,39.88
2023-03-20T18:14:02.157Z,38.35
2023-03-20T18:16:29.882Z,38.03
2023-03-20T18:18:57.154Z,37.75
2023-03-20T18:21:24.278Z,37.20
2023-03-20T18:23:51.529Z,35.53
2023-03-20T18:26:24.214Z,33.63
2023-03-20T18:28:53.168Z,34.53
2023-03-20T18:31:20.631Z,31.85
2023-03-20T18:33:52.433Z,32.65
2023-03-20T18:36:22.320Z,31.40
2023-03-20T18:38:49.989Z,32.55
2023-03-20T18:41:17.396Z,33.85
2023-03-20T18:43:46.570Z,34.72
2023-03-20T18:46:19.201Z,35.42
2023-03-20T18:48:46.876Z,35.28
2023-03-20T18:51:14.288Z,34.83
2023-03-20T18:53:42.079Z,35.53
2023-03-20T18:56:16.478Z,33.55
2023-03-20T18:58:44.588Z,33.90
2023-03-20T19:01:13.295Z,33.58
2023-03-20T19:03:42.662Z,32.72
2023-03-20T19:06:21.844Z,33.55
2023-03-20T19:08:50.058Z,33.28
2023-03-20T19:11:21.068Z,33.53
2023-03-20T19:13:53.155Z,32.63
2023-03-20T19:16:32.337Z,33.20
2023-03-20T19:19:02.495Z,32.90
2023-03-20T19:21:31.426Z,33.47
2023-03-20T19:24:01.281Z,33.80
2023-03-20T19:26:30.943Z,34.40
2023-03-20T19:28:59.506Z,35.85
2023-03-20T19:31:27.416Z,35.97
2023-03-20T19:33:56.868Z,36.20
2023-03-20T19:36:35.791Z,37.22
2023-03-20T19:39:05.921Z,38.13
2023-03-20T19:41:33.218Z,39.28
2023-03-20T19:44:01.459Z,40.15
2023-03-20T19:46:39.591Z,40.65
2023-03-20T19:49:30.711Z,42.60
2023-03-20T19:51:58.254Z,44.50
2023-03-20T19:54:25.408Z,44.30
2023-03-20T19:56:52.566Z,46.95
2023-03-20T19:59:21.076Z,48.40
2023-03-20T20:01:48.495Z,47.95
2023-03-20T20:04:16.387Z,48.92
2023-03-20T20:06:43.697Z,50.72
2023-03-20T20:09:10.941Z,52.78
2023-03-20T20:11:38.305Z,52.85
2023-03-20T20:14:08.564Z,53.78
2023-03-20T20:16:39.708Z,56.72
2023-03-20T20:19:07.847Z,57.10
2023-03-20T20:24:22.616Z,56.53
2023-03-20T20:26:55.468Z,59.17
2023-03-20T20:29:30.924Z,61.03
2023-03-20T20:31:59.846Z,65.03
2023-03-20T20:40:01.946Z,81.38
2023-03-20T20:42:29.068Z,84.55
2023-03-20T20:44:56.212Z,90.05
2023-03-20T20:47:23.476Z,85.20
2023-03-20T20:49:50.642Z,86.10
2023-03-20T20:52:18.084Z,89.00
2023-03-20T20:54:45.047Z,86.35
2023-03-20T20:57:12.401Z,82.53
2023-03-20T20:59:41.197Z,79.03
2023-03-20T21:02:15.703Z,82.53
2023-03-20T21:04:43.741Z,83.60
2023-03-20T21:07:12.554Z,79.72
2023-03-20T21:09:41.096Z,83.22
2023-03-20T21:12:10.799Z,84.95
2023-03-20T21:14:42.598Z,88.90
2023-03-20T21:17:10.583Z,92.28
2023-03-20T21:19:42.691Z,98.13
2023-03-20T21:22:12.401Z,97.55
2023-03-20T21:24:39.890Z,96.30
2023-03-20T21:27:11.206Z,100.10
2023-03-20T21:29:39.114Z,103.07
2023-03-20T21:32:06.627Z,105.45
2023-03-20T21:34:33.802Z,106.93
2023-03-20T21:37:23.835Z,106.22
2023-03-20T21:39:51.689Z,104.07
2023-03-20T21:42:19.572Z,102.45
2023-03-20T21:45:44.084Z,96.28
2023-03-20T21:51:02.936Z,85.22
2023-03-20T21:54:28.359Z,84.22
2023-03-20T21:56:40.221Z,79.88
2023-03-20T22:05:10.922Z,71.82
2023-03-20T22:07:38.436Z,67.38
2023-03-20T22:16:10.958Z,63.92
2023-03-20T22:21:48.529Z,62.30
2023-03-20T22:24:37.973Z,59.42
2023-03-20T22:30:12.199Z,58.85
2023-03-20T22:32:56.526Z,56.85
2023-03-20T22:38:41.705Z,56.97
2023-03-20T22:46:43.991Z,59.85
2023-03-20T22:49:04.930Z,62.00
2023-03-20T22:51:35.779Z,59.42
2023-03-20T22:54:06.085Z,57.13
2023-03-20T22:56:33.129Z,51.40
2023-03-20T22:59:01.117Z,51.42
2023-03-20T23:01:28.366Z,49.53
2023-03-20T23:03:55.637Z,48.88
2023-03-20T23:06:25.418Z,48.25
2023-03-20T23:08:57.095Z,45.28
2023-03-20T23:11:27.621Z,45.70
2023-03-20T23:13:55.083Z,44.30
2023-03-20T23:16:22.139Z,43.10
2023-03-20T23:18:49.418Z,42.75
2023-03-20T23:21:16.533Z,42.75
2023-03-20T23:23:43.679Z,41.63
2023-03-20T23:26:16.697Z,40.58
2023-03-20T23:28:46.684Z,39.97
2023-03-20T23:31:21.367Z,39.45
2023-03-20T23:33:51.226Z,40.05
2023-03-20T23:36:32.912Z,38.65
2023-03-20T23:39:02.610Z,39.88
2023-03-20T23:41:54.043Z,39.75
2023-03-20T23:44:16.927Z,39.75
2023-03-20T23:46:45.620Z,40.15
2023-03-20T23:49:14.215Z,39.13
2023-03-20T23:51:41.189Z,38.70
2023-03-20T23:54:08.339Z,38.47
2023-03-20T23:56:35.401Z,38.67
2023-03-20T23:59:11.456Z,38.28
